sensor_id;sensor_type;location;lat;lon;timestamp;temperature;humidity
31687;DHT22;18285;51.330;4.946;2023-08-20T00:14:57;23.30;53.90
31687;DHT22;18285;51.330;4.946;2023-08-20T00:39:17;23.40;54.00
31687;DHT22;18285;51.330;4.946;2023-08-20T01:03:27;23.30;54.20
31687;DHT22;18285;51.330;4.946;2023-08-20T01:51:55;23.30;53.90
31687;DHT22;18285;51.330;4.946;2023-08-20T02:16:06;23.20;53.60
31687;DHT22;18285;51.330;4.946;2023-08-20T02:40:17;23.20;53.40
31687;DHT22;18285;51.330;4.946;2023-08-20T03:04:28;23.20;53.60
31687;DHT22;18285;51.330;4.946;2023-08-20T03:28:39;23.20;53.90
31687;DHT22;18285;51.330;4.946;2023-08-20T03:52:50;23.20;54.00
31687;DHT22;18285;51.330;4.946;2023-08-20T04:17:00;23.20;53.90
31687;DHT22;18285;51.330;4.946;2023-08-20T04:41:11;23.20;53.90
31687;DHT22;18285;51.330;4.946;2023-08-20T05:05:22;23.10;53.20
31687;DHT22;18285;51.330;4.946;2023-08-20T05:29:32;23.10;53.80
31687;DHT22;18285;51.330;4.946;2023-08-20T05:53:43;23.10;53.40
31687;DHT22;18285;51.330;4.946;2023-08-20T06:17:54;23.10;53.20
31687;DHT22;18285;51.330;4.946;2023-08-20T06:42:05;23.10;53.30
31687;DHT22;18285;51.330;4.946;2023-08-20T07:06:15;23.10;53.60
31687;DHT22;18285;51.330;4.946;2023-08-20T07:30:28;23.00;53.80
31687;DHT22;18285;51.330;4.946;2023-08-20T07:54:39;23.00;53.70
31687;DHT22;18285;51.330;4.946;2023-08-20T08:18:50;23.10;53.50
31687;DHT22;18285;51.330;4.946;2023-08-20T08:43:02;23.00;54.00
31687;DHT22;18285;51.330;4.946;2023-08-20T09:07:14;23.10;54.00
31687;DHT22;18285;51.330;4.946;2023-08-20T09:31:37;23.10;53.60
31687;DHT22;18285;51.330;4.946;2023-08-20T09:55:51;23.10;53.20
31687;DHT22;18285;51.330;4.946;2023-08-20T10:20:04;23.10;53.20
31687;DHT22;18285;51.330;4.946;2023-08-20T10:44:15;23.20;53.90
31687;DHT22;18285;51.330;4.946;2023-08-20T11:08:27;23.20;54.50
31687;DHT22;18285;51.330;4.946;2023-08-20T11:32:38;23.20;54.60
31687;DHT22;18285;51.330;4.946;2023-08-20T11:56:50;23.20;54.40
31687;DHT22;18285;51.330;4.946;2023-08-20T12:21:01;23.20;54.40
31687;DHT22;18285;51.330;4.946;2023-08-20T12:45:12;23.20;54.50
31687;DHT22;18285;51.330;4.946;2023-08-20T13:09:24;23.30;54.30
31687;DHT22;18285;51.330;4.946;2023-08-20T13:33:34;23.30;54.10
31687;DHT22;18285;51.330;4.946;2023-08-20T13:57:45;23.20;54.10
31687;DHT22;18285;51.330;4.946;2023-08-20T14:21:56;23.20;54.10
31687;DHT22;18285;51.330;4.946;2023-08-20T14:46:07;23.20;54.30
31687;DHT22;18285;51.330;4.946;2023-08-20T15:10:17;23.20;55.20
31687;DHT22;18285;51.330;4.946;2023-08-20T15:34:28;23.20;55.30
31687;DHT22;18285;51.330;4.946;2023-08-20T15:58:39;23.30;54.90
31687;DHT22;18285;51.330;4.946;2023-08-20T16:22:50;23.30;55.70
31687;DHT22;18285;51.330;4.946;2023-08-20T16:47:00;23.30;55.20
31687;DHT22;18285;51.330;4.946;2023-08-20T17:11:11;23.30;55.30
31687;DHT22;18285;51.330;4.946;2023-08-20T17:35:22;23.40;55.60
31687;DHT22;18285;51.330;4.946;2023-08-20T17:59:33;23.40;54.80
31687;DHT22;18285;51.330;4.946;2023-08-20T18:23:43;23.30;54.50
31687;DHT22;18285;51.330;4.946;2023-08-20T18:47:54;23.30;54.40
31687;DHT22;18285;51.330;4.946;2023-08-20T19:12:05;23.30;54.20
31687;DHT22;18285;51.330;4.946;2023-08-20T19:36:15;23.20;54.90
31687;DHT22;18285;51.330;4.946;2023-08-20T20:00:27;23.30;54.80
31687;DHT22;18285;51.330;4.946;2023-08-20T20:24:38;23.40;55.70
31687;DHT22;18285;51.330;4.946;2023-08-20T20:48:49;23.40;55.80
31687;DHT22;18285;51.330;4.946;2023-08-20T21:13:00;23.40;55.90
31687;DHT22;18285;51.330;4.946;2023-08-20T21:37:13;23.40;55.90
31687;DHT22;18285;51.330;4.946;2023-08-20T22:01:23;23.40;56.00
31687;DHT22;18285;51.330;4.946;2023-08-20T22:25:34;23.40;56.10
31687;DHT22;18285;51.330;4.946;2023-08-20T22:49:45;23.40;56.30
31687;DHT22;18285;51.330;4.946;2023-08-20T23:13:55;23.40;56.30
31687;DHT22;18285;51.330;4.946;2023-08-20T23:38:07;23.50;56.40
